sensor_id;sensor_type;location;lat;lon;timestamp;P1;durP1;ratioP1;P2;durP2;ratioP2
55015;SDS011;40919;43.236;21.590;2022-09-17T00:00:09;22.73;;;11.48;;
55015;SDS011;40919;43.236;21.590;2022-09-17T00:02:35;18.15;;;11.45;;
55015;SDS011;40919;43.236;21.590;2022-09-17T00:05:02;14.82;;;10.77;;
55015;SDS011;40919;43.236;21.590;2022-09-17T00:07:28;16.55;;;11.63;;
55015;SDS011;40919;43.236;21.590;2022-09-17T00:09:54;19.67;;;11.32;;
55015;SDS011;40919;43.236;21.590;2022-09-17T00:12:20;20.67;;;12.45;;
55015;SDS011;40919;43.236;21.590;2022-09-17T00:14:46;21.98;;;11.40;;
55015;SDS011;40919;43.236;21.590;2022-09-17T00:17:11;17.08;;;10.82;;
55015;SDS011;40919;43.236;21.590;2022-09-17T00:19:37;20.45;;;10.90;;
55015;SDS011;40919;43.236;21.590;2022-09-17T00:22:03;15.23;;;10.68;;
55015;SDS011;40919;43.236;21.590;2022-09-17T00:24:29;14.68;;;10.50;;
55015;SDS011;40919;43.236;21.590;2022-09-17T00:26:55;14.15;;;9.02;;
55015;SDS011;40919;43.236;21.590;2022-09-17T00:29:21;15.93;;;10.45;;
55015;SDS011;40919;43.236;21.590;2022-09-17T00:31:47;16.55;;;9.25;;
55015;SDS011;40919;43.236;21.590;2022-09-17T00:34:12;12.73;;;8.45;;
55015;SDS011;40919;43.236;21.590;2022-09-17T00:36:39;19.30;;;8.63;;
55015;SDS011;40919;43.236;21.590;2022-09-17T00:39:05;12.98;;;6.88;;
55015;SDS011;40919;43.236;21.590;2022-09-17T00:41:33;13.55;;;7.05;;
55015;SDS011;40919;43.236;21.590;2022-09-17T00:44:34;13.38;;;6.28;;
55015;SDS011;40919;43.236;21.590;2022-09-17T00:55:31;19.42;;;12.13;;
55015;SDS011;40919;43.236;21.590;2022-09-17T00:57:58;19.30;;;11.25;;
55015;SDS011;40919;43.236;21.590;2022-09-17T01:00:26;27.33;;;13.73;;
55015;SDS011;40919;43.236;21.590;2022-09-17T01:02:53;21.90;;;12.45;;
55015;SDS011;40919;43.236;21.590;2022-09-17T01:05:43;21.65;;;12.90;;
55015;SDS011;40919;43.236;21.590;2022-09-17T01:08:25;16.90;;;11.45;;
55015;SDS011;40919;43.236;21.590;2022-09-17T01:13:30;22.10;;;11.82;;
55015;SDS011;40919;43.236;21.590;2022-09-17T01:24:38;19.08;;;10.50;;
55015;SDS011;40919;43.236;21.590;2022-09-17T01:27:27;17.13;;;12.48;;
55015;SDS011;40919;43.236;21.590;2022-09-17T01:30:26;21.58;;;12.80;;
55015;SDS011;40919;43.236;21.590;2022-09-17T01:36:19;19.80;;;11.35;;
55015;SDS011;40919;43.236;21.590;2022-09-17T01:41:26;18.67;;;9.73;;
55015;SDS011;40919;43.236;21.590;2022-09-17T01:44:02;12.93;;;8.27;;
55015;SDS011;40919;43.236;21.590;2022-09-17T01:46:54;15.93;;;8.00;;
55015;SDS011;40919;43.236;21.590;2022-09-17T01:51:54;14.35;;;8.57;;
55015;SDS011;40919;43.236;21.590;2022-09-17T01:54:28;15.75;;;8.73;;
55015;SDS011;40919;43.236;21.590;2022-09-17T01:57:03;12.82;;;7.82;;
55015;SDS011;40919;43.236;21.590;2022-09-17T01:59:33;14.80;;;8.02;;
55015;SDS011;40919;43.236;21.590;2022-09-17T02:02:16;16.15;;;7.88;;
55015;SDS011;40919;43.236;21.590;2022-09-17T02:05:02;14.88;;;7.72;;
55015;SDS011;40919;43.236;21.590;2022-09-17T02:07:32;11.88;;;7.20;;
55015;SDS011;40919;43.236;21.590;2022-09-17T02:10:10;15.18;;;7.68;;
55015;SDS011;40919;43.236;21.590;2022-09-17T02:12:45;18.60;;;7.75;;
55015;SDS011;40919;43.236;21.590;2022-09-17T02:15:27;22.42;;;7.85;;
55015;SDS011;40919;43.236;21.590;2022-09-17T02:20:39;11.05;;;6.88;;
55015;SDS011;40919;43.236;21.590;2022-09-17T02:23:17;12.32;;;7.50;;
55015;SDS011;40919;43.236;21.590;2022-09-17T02:25:55;16.15;;;7.38;;
55015;SDS011;40919;43.236;21.590;2022-09-17T02:31:06;16.30;;;8.65;;
55015;SDS011;40919;43.236;21.590;2022-09-17T02:33:32;11.18;;;7.18;;
55015;SDS011;40919;43.236;21.590;2022-09-17T02:36:00;15.13;;;7.15;;
55015;SDS011;40919;43.236;21.590;2022-09-17T02:38:27;14.75;;;7.10;;
55015;SDS011;40919;43.236;21.590;2022-09-17T02:43:51;10.18;;;5.97;;
55015;SDS011;40919;43.236;21.590;2022-09-17T02:49:54;11.45;;;5.40;;
55015;SDS011;40919;43.236;21.590;2022-09-17T02:54:56;14.52;;;6.07;;
55015;SDS011;40919;43.236;21.590;2022-09-17T03:00:20;12.50;;;5.95;;
55015;SDS011;40919;43.236;21.590;2022-09-17T03:02:52;12.55;;;6.72;;
55015;SDS011;40919;43.236;21.590;2022-09-17T03:05:33;15.30;;;6.95;;
55015;SDS011;40919;43.236;21.590;2022-09-17T03:08:01;13.13;;;6.72;;
55015;SDS011;40919;43.236;21.590;2022-09-17T03:10:27;13.55;;;6.45;;
55015;SDS011;40919;43.236;21.590;2022-09-17T03:12:57;11.38;;;6.00;;
55015;SDS011;40919;43.236;21.590;2022-09-17T03:15:23;13.50;;;5.65;;
55015;SDS011;40919;43.236;21.590;2022-09-17T03:17:49;14.00;;;5.85;;
55015;SDS011;40919;43.236;21.590;2022-09-17T03:20:15;9.52;;;6.70;;
55015;SDS011;40919;43.236;21.590;2022-09-17T03:22:41;14.88;;;6.22;;
55015;SDS011;40919;43.236;21.590;2022-09-17T03:25:07;10.98;;;5.88;;
55015;SDS011;40919;43.236;21.590;2022-09-17T03:27:34;11.20;;;5.50;;
55015;SDS011;40919;43.236;21.590;2022-09-17T03:29:59;14.77;;;6.35;;
55015;SDS011;40919;43.236;21.590;2022-09-17T03:32:25;14.23;;;5.70;;
55015;SDS011;40919;43.236;21.590;2022-09-17T03:34:51;12.63;;;6.40;;
55015;SDS011;40919;43.236;21.590;2022-09-17T03:37:18;9.90;;;5.53;;
55015;SDS011;40919;43.236;21.590;2022-09-17T03:39:44;8.68;;;5.22;;
55015;SDS011;40919;43.236;21.590;2022-09-17T03:42:10;11.02;;;5.50;;
55015;SDS011;40919;43.236;21.590;2022-09-17T03:44:36;16.23;;;5.97;;
55015;SDS011;40919;43.236;21.590;2022-09-17T03:47:02;10.48;;;6.65;;
55015;SDS011;40919;43.236;21.590;2022-09-17T03:49:28;14.07;;;5.80;;
55015;SDS011;40919;43.236;21.590;2022-09-17T03:51:54;10.73;;;6.18;;
55015;SDS011;40919;43.236;21.590;2022-09-17T03:54:19;12.48;;;5.95;;
55015;SDS011;40919;43.236;21.590;2022-09-17T03:56:45;15.02;;;6.13;;
55015;SDS011;40919;43.236;21.590;2022-09-17T03:59:11;14.07;;;7.00;;
55015;SDS011;40919;43.236;21.590;2022-09-17T04:01:37;11.93;;;6.05;;
55015;SDS011;40919;43.236;21.590;2022-09-17T04:04:03;14.90;;;6.18;;
55015;SDS011;40919;43.236;21.590;2022-09-17T04:06:29;14.55;;;5.80;;
55015;SDS011;40919;43.236;21.590;2022-09-17T04:08:55;16.58;;;6.82;;
55015;SDS011;40919;43.236;21.590;2022-09-17T04:11:21;12.50;;;5.45;;
55015;SDS011;40919;43.236;21.590;2022-09-17T04:13:47;17.48;;;7.15;;
55015;SDS011;40919;43.236;21.590;2022-09-17T04:16:13;12.02;;;5.90;;
55015;SDS011;40919;43.236;21.590;2022-09-17T04:18:39;12.70;;;5.88;;
55015;SDS011;40919;43.236;21.590;2022-09-17T04:21:05;9.95;;;5.43;;
55015;SDS011;40919;43.236;21.590;2022-09-17T04:23:31;18.58;;;5.88;;
55015;SDS011;40919;43.236;21.590;2022-09-17T04:25:57;10.77;;;5.82;;
55015;SDS011;40919;43.236;21.590;2022-09-17T04:28:22;13.98;;;4.63;;
55015;SDS011;40919;43.236;21.590;2022-09-17T04:30:48;14.43;;;5.80;;
55015;SDS011;40919;43.236;21.590;2022-09-17T04:33:14;16.42;;;6.93;;
55015;SDS011;40919;43.236;21.590;2022-09-17T04:35:40;17.38;;;8.07;;
55015;SDS011;40919;43.236;21.590;2022-09-17T04:38:06;15.45;;;6.38;;
55015;SDS011;40919;43.236;21.590;2022-09-17T04:40:33;18.73;;;6.43;;
55015;SDS011;40919;43.236;21.590;2022-09-17T04:42:59;9.68;;;6.25;;
55015;SDS011;40919;43.236;21.590;2022-09-17T04:45:27;16.30;;;7.07;;
55015;SDS011;40919;43.236;21.590;2022-09-17T04:47:57;12.50;;;5.18;;
55015;SDS011;40919;43.236;21.590;2022-09-17T04:50:23;11.00;;;4.90;;
55015;SDS011;40919;43.236;21.590;2022-09-17T04:52:49;9.20;;;3.65;;
55015;SDS011;40919;43.236;21.590;2022-09-17T04:55:15;13.52;;;4.13;;
55015;SDS011;40919;43.236;21.590;2022-09-17T04:57:45;6.38;;;3.35;;
55015;SDS011;40919;43.236;21.590;2022-09-17T05:00:14;8.35;;;4.13;;
55015;SDS011;40919;43.236;21.590;2022-09-17T05:02:45;13.57;;;4.25;;
55015;SDS011;40919;43.236;21.590;2022-09-17T05:05:12;14.02;;;3.92;;
55015;SDS011;40919;43.236;21.590;2022-09-17T05:07:39;8.38;;;4.22;;
55015;SDS011;40919;43.236;21.590;2022-09-17T05:10:06;13.38;;;4.22;;
55015;SDS011;40919;43.236;21.590;2022-09-17T05:12:33;8.45;;;6.05;;
55015;SDS011;40919;43.236;21.590;2022-09-17T05:14:59;11.55;;;4.63;;
55015;SDS011;40919;43.236;21.590;2022-09-17T05:17:24;9.38;;;4.68;;
55015;SDS011;40919;43.236;21.590;2022-09-17T05:19:50;11.95;;;4.25;;
55015;SDS011;40919;43.236;21.590;2022-09-17T05:22:17;11.65;;;4.30;;
55015;SDS011;40919;43.236;21.590;2022-09-17T05:24:43;8.43;;;4.50;;
55015;SDS011;40919;43.236;21.590;2022-09-17T05:27:09;9.90;;;4.40;;
55015;SDS011;40919;43.236;21.590;2022-09-17T05:29:35;16.27;;;8.25;;
55015;SDS011;40919;43.236;21.590;2022-09-17T05:32:02;13.50;;;7.47;;
55015;SDS011;40919;43.236;21.590;2022-09-17T05:34:28;19.23;;;8.32;;
55015;SDS011;40919;43.236;21.590;2022-09-17T05:36:54;20.40;;;7.82;;
55015;SDS011;40919;43.236;21.590;2022-09-17T05:39:19;21.23;;;9.13;;
55015;SDS011;40919;43.236;21.590;2022-09-17T05:41:49;18.63;;;8.38;;
55015;SDS011;40919;43.236;21.590;2022-09-17T05:44:19;18.75;;;8.73;;
55015;SDS011;40919;43.236;21.590;2022-09-17T05:46:45;16.02;;;8.50;;
55015;SDS011;40919;43.236;21.590;2022-09-17T05:49:14;18.92;;;8.95;;
55015;SDS011;40919;43.236;21.590;2022-09-17T05:51:40;24.50;;;9.32;;
55015;SDS011;40919;43.236;21.590;2022-09-17T05:54:06;22.02;;;10.48;;
55015;SDS011;40919;43.236;21.590;2022-09-17T05:56:33;19.95;;;9.88;;
55015;SDS011;40919;43.236;21.590;2022-09-17T05:58:59;19.30;;;10.13;;
55015;SDS011;40919;43.236;21.590;2022-09-17T06:01:24;14.15;;;8.30;;
55015;SDS011;40919;43.236;21.590;2022-09-17T06:03:50;11.27;;;6.28;;
55015;SDS011;40919;43.236;21.590;2022-09-17T06:06:16;10.07;;;5.95;;
55015;SDS011;40919;43.236;21.590;2022-09-17T06:08:42;10.88;;;5.47;;
55015;SDS011;40919;43.236;21.590;2022-09-17T06:11:08;10.27;;;5.03;;
55015;SDS011;40919;43.236;21.590;2022-09-17T06:13:34;11.95;;;5.22;;
55015;SDS011;40919;43.236;21.590;2022-09-17T06:16:00;11.60;;;5.57;;
55015;SDS011;40919;43.236;21.590;2022-09-17T06:18:27;10.25;;;5.10;;
55015;SDS011;40919;43.236;21.590;2022-09-17T06:20:58;9.48;;;4.90;;
55015;SDS011;40919;43.236;21.590;2022-09-17T06:23:25;9.02;;;5.75;;
55015;SDS011;40919;43.236;21.590;2022-09-17T06:25:52;9.48;;;4.78;;
55015;SDS011;40919;43.236;21.590;2022-09-17T06:28:20;8.48;;;5.07;;
55015;SDS011;40919;43.236;21.590;2022-09-17T06:30:46;7.97;;;5.80;;
55015;SDS011;40919;43.236;21.590;2022-09-17T06:33:13;8.60;;;4.68;;
55015;SDS011;40919;43.236;21.590;2022-09-17T06:35:39;11.82;;;4.78;;
55015;SDS011;40919;43.236;21.590;2022-09-17T06:38:05;11.23;;;5.40;;
55015;SDS011;40919;43.236;21.590;2022-09-17T06:40:31;14.13;;;6.85;;
55015;SDS011;40919;43.236;21.590;2022-09-17T06:42:57;11.20;;;6.53;;
55015;SDS011;40919;43.236;21.590;2022-09-17T06:45:24;11.30;;;5.03;;
55015;SDS011;40919;43.236;21.590;2022-09-17T06:47:51;8.00;;;5.28;;
55015;SDS011;40919;43.236;21.590;2022-09-17T06:50:17;9.85;;;5.20;;
55015;SDS011;40919;43.236;21.590;2022-09-17T06:52:46;11.30;;;5.32;;
55015;SDS011;40919;43.236;21.590;2022-09-17T06:55:13;10.30;;;5.50;;
55015;SDS011;40919;43.236;21.590;2022-09-17T06:57:40;37.63;;;22.85;;
55015;SDS011;40919;43.236;21.590;2022-09-17T07:00:06;29.80;;;17.75;;
55015;SDS011;40919;43.236;21.590;2022-09-17T07:02:33;28.42;;;15.85;;
55015;SDS011;40919;43.236;21.590;2022-09-17T07:04:59;23.45;;;14.75;;
55015;SDS011;40919;43.236;21.590;2022-09-17T07:07:25;23.08;;;13.95;;
55015;SDS011;40919;43.236;21.590;2022-09-17T07:09:51;26.52;;;12.80;;
55015;SDS011;40919;43.236;21.590;2022-09-17T07:12:20;22.40;;;11.50;;
55015;SDS011;40919;43.236;21.590;2022-09-17T07:14:46;19.30;;;10.57;;
55015;SDS011;40919;43.236;21.590;2022-09-17T07:17:12;20.20;;;10.52;;
55015;SDS011;40919;43.236;21.590;2022-09-17T07:19:39;17.27;;;9.90;;
55015;SDS011;40919;43.236;21.590;2022-09-17T07:22:04;16.67;;;8.85;;
55015;SDS011;40919;43.236;21.590;2022-09-17T07:24:30;18.65;;;10.07;;
55015;SDS011;40919;43.236;21.590;2022-09-17T07:26:57;21.15;;;11.32;;
55015;SDS011;40919;43.236;21.590;2022-09-17T07:29:22;18.13;;;12.50;;
55015;SDS011;40919;43.236;21.590;2022-09-17T07:31:51;30.58;;;14.48;;
55015;SDS011;40919;43.236;21.590;2022-09-17T07:34:18;19.92;;;13.90;;
55015;SDS011;40919;43.236;21.590;2022-09-17T07:36:44;22.23;;;14.65;;
55015;SDS011;40919;43.236;21.590;2022-09-17T07:39:10;25.08;;;14.32;;
55015;SDS011;40919;43.236;21.590;2022-09-17T07:41:37;19.35;;;16.33;;
55015;SDS011;40919;43.236;21.590;2022-09-17T07:44:04;19.17;;;12.55;;
55015;SDS011;40919;43.236;21.590;2022-09-17T07:46:33;17.27;;;10.15;;
55015;SDS011;40919;43.236;21.590;2022-09-17T07:49:00;16.85;;;10.20;;
55015;SDS011;40919;43.236;21.590;2022-09-17T07:51:26;20.40;;;10.20;;
55015;SDS011;40919;43.236;21.590;2022-09-17T07:53:56;18.95;;;10.82;;
55015;SDS011;40919;43.236;21.590;2022-09-17T07:56:24;18.17;;;12.15;;
55015;SDS011;40919;43.236;21.590;2022-09-17T07:58:51;17.60;;;11.10;;
55015;SDS011;40919;43.236;21.590;2022-09-17T08:01:17;15.90;;;11.40;;
55015;SDS011;40919;43.236;21.590;2022-09-17T08:03:51;17.33;;;14.07;;
55015;SDS011;40919;43.236;21.590;2022-09-17T08:06:19;17.70;;;11.50;;
55015;SDS011;40919;43.236;21.590;2022-09-17T08:08:47;11.90;;;8.88;;
55015;SDS011;40919;43.236;21.590;2022-09-17T08:11:15;13.82;;;10.25;;
55015;SDS011;40919;43.236;21.590;2022-09-17T08:13:46;18.75;;;10.50;;
55015;SDS011;40919;43.236;21.590;2022-09-17T08:16:15;16.40;;;11.48;;
55015;SDS011;40919;43.236;21.590;2022-09-17T08:18:42;25.58;;;18.98;;
55015;SDS011;40919;43.236;21.590;2022-09-17T08:21:09;27.52;;;20.88;;
55015;SDS011;40919;43.236;21.590;2022-09-17T08:23:37;25.08;;;16.45;;
55015;SDS011;40919;43.236;21.590;2022-09-17T08:26:04;20.88;;;13.13;;
55015;SDS011;40919;43.236;21.590;2022-09-17T08:28:32;13.60;;;10.68;;
55015;SDS011;40919;43.236;21.590;2022-09-17T08:31:00;21.80;;;14.52;;
55015;SDS011;40919;43.236;21.590;2022-09-17T08:33:30;19.73;;;15.23;;
55015;SDS011;40919;43.236;21.590;2022-09-17T08:35:57;17.27;;;11.95;;
55015;SDS011;40919;43.236;21.590;2022-09-17T08:38:26;19.23;;;12.18;;
55015;SDS011;40919;43.236;21.590;2022-09-17T08:41:04;18.35;;;11.07;;
55015;SDS011;40919;43.236;21.590;2022-09-17T08:46:09;17.38;;;12.60;;
55015;SDS011;40919;43.236;21.590;2022-09-17T08:48:38;17.65;;;11.23;;
55015;SDS011;40919;43.236;21.590;2022-09-17T08:51:16;18.63;;;11.15;;
55015;SDS011;40919;43.236;21.590;2022-09-17T08:54:10;13.57;;;7.93;;
55015;SDS011;40919;43.236;21.590;2022-09-17T08:56:41;13.00;;;7.45;;
55015;SDS011;40919;43.236;21.590;2022-09-17T09:05:07;12.27;;;7.85;;
55015;SDS011;40919;43.236;21.590;2022-09-17T09:07:39;12.98;;;8.77;;
55015;SDS011;40919;43.236;21.590;2022-09-17T09:10:19;12.90;;;9.50;;
55015;SDS011;40919;43.236;21.590;2022-09-17T09:12:50;14.05;;;8.40;;
55015;SDS011;40919;43.236;21.590;2022-09-17T09:17:47;11.85;;;7.72;;
55015;SDS011;40919;43.236;21.590;2022-09-17T09:20:16;9.35;;;6.07;;
55015;SDS011;40919;43.236;21.590;2022-09-17T09:22:49;11.05;;;6.75;;
55015;SDS011;40919;43.236;21.590;2022-09-17T09:25:18;11.13;;;6.30;;
55015;SDS011;40919;43.236;21.590;2022-09-17T09:33:27;7.78;;;4.10;;
55015;SDS011;40919;43.236;21.590;2022-09-17T09:35:56;11.90;;;4.75;;
55015;SDS011;40919;43.236;21.590;2022-09-17T09:38:32;8.07;;;4.93;;
55015;SDS011;40919;43.236;21.590;2022-09-17T09:41:19;9.60;;;6.10;;
55015;SDS011;40919;43.236;21.590;2022-09-17T09:44:04;10.43;;;7.00;;
55015;SDS011;40919;43.236;21.590;2022-09-17T09:49:28;11.95;;;7.55;;
55015;SDS011;40919;43.236;21.590;2022-09-17T09:54:52;62.13;;;48.70;;
55015;SDS011;40919;43.236;21.590;2022-09-17T09:57:42;37.70;;;31.25;;
55015;SDS011;40919;43.236;21.590;2022-09-17T10:05:37;17.60;;;15.77;;
55015;SDS011;40919;43.236;21.590;2022-09-17T10:08:10;15.40;;;10.50;;
55015;SDS011;40919;43.236;21.590;2022-09-17T10:10:41;10.60;;;7.63;;
55015;SDS011;40919;43.236;21.590;2022-09-17T10:13:26;11.65;;;6.65;;
55015;SDS011;40919;43.236;21.590;2022-09-17T10:15:54;11.73;;;7.55;;
55015;SDS011;40919;43.236;21.590;2022-09-17T10:18:21;8.73;;;4.93;;
55015;SDS011;40919;43.236;21.590;2022-09-17T10:20:58;8.00;;;5.32;;
55015;SDS011;40919;43.236;21.590;2022-09-17T10:23:28;8.43;;;5.68;;
55015;SDS011;40919;43.236;21.590;2022-09-17T10:25:58;9.48;;;6.40;;
55015;SDS011;40919;43.236;21.590;2022-09-17T10:31:00;8.82;;;6.30;;
55015;SDS011;40919;43.236;21.590;2022-09-17T10:33:32;13.13;;;10.48;;
55015;SDS011;40919;43.236;21.590;2022-09-17T10:36:02;12.07;;;8.75;;
55015;SDS011;40919;43.236;21.590;2022-09-17T10:41:13;9.52;;;8.52;;
55015;SDS011;40919;43.236;21.590;2022-09-17T10:43:41;8.80;;;6.57;;
55015;SDS011;40919;43.236;21.590;2022-09-17T10:46:08;7.93;;;5.25;;
55015;SDS011;40919;43.236;21.590;2022-09-17T10:48:42;6.72;;;4.50;;
55015;SDS011;40919;43.236;21.590;2022-09-17T10:51:18;6.22;;;3.70;;
55015;SDS011;40919;43.236;21.590;2022-09-17T10:53:55;6.47;;;3.90;;
55015;SDS011;40919;43.236;21.590;2022-09-17T10:56:45;6.93;;;4.60;;
55015;SDS011;40919;43.236;21.590;2022-09-17T11:10:21;4.95;;;4.00;;
55015;SDS011;40919;43.236;21.590;2022-09-17T11:15:52;11.10;;;8.25;;
55015;SDS011;40919;43.236;21.590;2022-09-17T11:18:30;10.50;;;7.53;;
55015;SDS011;40919;43.236;21.590;2022-09-17T11:31:57;10.77;;;9.35;;
55015;SDS011;40919;43.236;21.590;2022-09-17T11:36:59;13.02;;;7.80;;
55015;SDS011;40919;43.236;21.590;2022-09-17T11:41:53;9.98;;;8.02;;
55015;SDS011;40919;43.236;21.590;2022-09-17T11:44:25;10.70;;;7.72;;
55015;SDS011;40919;43.236;21.590;2022-09-17T11:46:55;12.90;;;9.27;;
55015;SDS011;40919;43.236;21.590;2022-09-17T11:51:49;10.00;;;8.48;;
55015;SDS011;40919;43.236;21.590;2022-09-17T11:54:28;11.73;;;9.50;;
55015;SDS011;40919;43.236;21.590;2022-09-17T11:57:17;11.10;;;9.95;;
55015;SDS011;40919;43.236;21.590;2022-09-17T11:59:43;9.38;;;8.38;;
55015;SDS011;40919;43.236;21.590;2022-09-17T12:02:17;11.02;;;9.13;;
55015;SDS011;40919;43.236;21.590;2022-09-17T12:07:16;9.30;;;8.50;;
55015;SDS011;40919;43.236;21.590;2022-09-17T12:09:44;9.35;;;8.45;;
55015;SDS011;40919;43.236;21.590;2022-09-17T12:12:13;10.90;;;9.77;;
55015;SDS011;40919;43.236;21.590;2022-09-17T12:14:55;12.52;;;9.80;;
55015;SDS011;40919;43.236;21.590;2022-09-17T12:17:23;11.30;;;10.20;;
55015;SDS011;40919;43.236;21.590;2022-09-17T12:19:56;10.90;;;9.80;;
55015;SDS011;40919;43.236;21.590;2022-09-17T12:22:25;11.48;;;10.27;;
55015;SDS011;40919;43.236;21.590;2022-09-17T12:24:52;10.50;;;9.40;;
55015;SDS011;40919;43.236;21.590;2022-09-17T12:27:34;12.27;;;9.10;;
55015;SDS011;40919;43.236;21.590;2022-09-17T12:30:14;12.20;;;9.63;;
55015;SDS011;40919;43.236;21.590;2022-09-17T12:43:20;14.30;;;12.80;;
55015;SDS011;40919;43.236;21.590;2022-09-17T12:46:39;14.57;;;12.43;;
55015;SDS011;40919;43.236;21.590;2022-09-17T12:56:26;12.48;;;10.52;;
55015;SDS011;40919;43.236;21.590;2022-09-17T12:59:03;12.65;;;10.48;;
55015;SDS011;40919;43.236;21.590;2022-09-17T13:11:58;12.43;;;10.10;;
55015;SDS011;40919;43.236;21.590;2022-09-17T13:17:02;12.40;;;10.50;;
55015;SDS011;40919;43.236;21.590;2022-09-17T13:19:33;11.20;;;9.95;;
55015;SDS011;40919;43.236;21.590;2022-09-17T13:22:05;18.35;;;14.23;;
55015;SDS011;40919;43.236;21.590;2022-09-17T13:24:33;12.80;;;11.50;;
55015;SDS011;40919;43.236;21.590;2022-09-17T13:27:00;12.32;;;10.48;;
55015;SDS011;40919;43.236;21.590;2022-09-17T13:34:56;13.63;;;11.27;;
55015;SDS011;40919;43.236;21.590;2022-09-17T13:37:22;12.50;;;11.02;;
55015;SDS011;40919;43.236;21.590;2022-09-17T13:39:50;15.02;;;11.73;;
55015;SDS011;40919;43.236;21.590;2022-09-17T13:45:21;12.27;;;11.07;;
55015;SDS011;40919;43.236;21.590;2022-09-17T13:47:55;14.10;;;12.57;;
55015;SDS011;40919;43.236;21.590;2022-09-17T13:50:29;20.10;;;17.08;;
55015;SDS011;40919;43.236;21.590;2022-09-17T13:58:06;17.17;;;15.27;;
55015;SDS011;40919;43.236;21.590;2022-09-17T14:00:54;19.17;;;16.48;;
55015;SDS011;40919;43.236;21.590;2022-09-17T14:11:03;13.80;;;11.20;;
55015;SDS011;40919;43.236;21.590;2022-09-17T14:21:57;11.93;;;9.18;;
55015;SDS011;40919;43.236;21.590;2022-09-17T14:31:48;15.85;;;11.23;;
55015;SDS011;40919;43.236;21.590;2022-09-17T14:34:18;25.20;;;18.08;;
55015;SDS011;40919;43.236;21.590;2022-09-17T14:36:46;16.85;;;12.60;;
55015;SDS011;40919;43.236;21.590;2022-09-17T14:39:20;9.90;;;8.13;;
55015;SDS011;40919;43.236;21.590;2022-09-17T14:41:46;10.98;;;8.27;;
55015;SDS011;40919;43.236;21.590;2022-09-17T14:46:41;11.85;;;10.45;;
55015;SDS011;40919;43.236;21.590;2022-09-17T14:49:22;13.05;;;11.05;;
55015;SDS011;40919;43.236;21.590;2022-09-17T14:51:49;12.70;;;9.38;;
55015;SDS011;40919;43.236;21.590;2022-09-17T14:54:25;11.45;;;7.25;;
55015;SDS011;40919;43.236;21.590;2022-09-17T14:59:29;10.50;;;7.13;;
55015;SDS011;40919;43.236;21.590;2022-09-17T15:01:58;10.85;;;8.40;;
55015;SDS011;40919;43.236;21.590;2022-09-17T15:04:25;10.23;;;8.27;;
55015;SDS011;40919;43.236;21.590;2022-09-17T15:06:51;11.65;;;8.25;;
55015;SDS011;40919;43.236;21.590;2022-09-17T15:09:21;10.27;;;8.43;;
55015;SDS011;40919;43.236;21.590;2022-09-17T15:11:48;15.65;;;10.27;;
55015;SDS011;40919;43.236;21.590;2022-09-17T15:14:21;11.38;;;10.18;;
55015;SDS011;40919;43.236;21.590;2022-09-17T15:16:49;14.38;;;10.10;;
55015;SDS011;40919;43.236;21.590;2022-09-17T15:19:23;15.05;;;11.50;;
55015;SDS011;40919;43.236;21.590;2022-09-17T15:21:53;12.63;;;10.77;;
55015;SDS011;40919;43.236;21.590;2022-09-17T15:24:37;12.63;;;10.73;;
55015;SDS011;40919;43.236;21.590;2022-09-17T15:27:08;13.93;;;11.35;;
55015;SDS011;40919;43.236;21.590;2022-09-17T15:29:35;17.95;;;12.38;;
55015;SDS011;40919;43.236;21.590;2022-09-17T15:32:03;10.93;;;9.30;;
55015;SDS011;40919;43.236;21.590;2022-09-17T15:34:30;12.43;;;9.50;;
55015;SDS011;40919;43.236;21.590;2022-09-17T15:37:29;13.35;;;9.45;;
55015;SDS011;40919;43.236;21.590;2022-09-17T15:39:52;12.38;;;11.02;;
55015;SDS011;40919;43.236;21.590;2022-09-17T15:42:21;11.50;;;10.35;;
55015;SDS011;40919;43.236;21.590;2022-09-17T15:44:51;11.35;;;8.98;;
55015;SDS011;40919;43.236;21.590;2022-09-17T15:47:33;12.07;;;9.07;;
55015;SDS011;40919;43.236;21.590;2022-09-17T15:50:17;15.50;;;10.15;;
55015;SDS011;40919;43.236;21.590;2022-09-17T15:52:48;12.07;;;10.32;;
55015;SDS011;40919;43.236;21.590;2022-09-17T15:55:28;13.65;;;11.27;;
55015;SDS011;40919;43.236;21.590;2022-09-17T15:58:00;15.23;;;11.38;;
55015;SDS011;40919;43.236;21.590;2022-09-17T16:00:28;12.93;;;10.85;;
55015;SDS011;40919;43.236;21.590;2022-09-17T16:02:55;13.45;;;10.85;;
55015;SDS011;40919;43.236;21.590;2022-09-17T16:07:51;13.57;;;11.52;;
55015;SDS011;40919;43.236;21.590;2022-09-17T16:10:17;12.85;;;10.48;;
55015;SDS011;40919;43.236;21.590;2022-09-17T16:12:43;12.45;;;11.15;;
55015;SDS011;40919;43.236;21.590;2022-09-17T16:15:13;15.13;;;10.70;;
55015;SDS011;40919;43.236;21.590;2022-09-17T16:17:42;12.75;;;11.45;;
55015;SDS011;40919;43.236;21.590;2022-09-17T16:22:44;15.47;;;11.50;;
55015;SDS011;40919;43.236;21.590;2022-09-17T16:25:12;13.70;;;11.65;;
55015;SDS011;40919;43.236;21.590;2022-09-17T16:27:49;15.68;;;12.43;;
55015;SDS011;40919;43.236;21.590;2022-09-17T16:30:19;19.10;;;16.77;;
55015;SDS011;40919;43.236;21.590;2022-09-17T16:32:46;22.67;;;19.27;;
55015;SDS011;40919;43.236;21.590;2022-09-17T16:35:13;20.42;;;16.20;;
55015;SDS011;40919;43.236;21.590;2022-09-17T16:37:40;23.85;;;17.23;;
55015;SDS011;40919;43.236;21.590;2022-09-17T16:40:08;27.10;;;19.40;;
55015;SDS011;40919;43.236;21.590;2022-09-17T16:42:38;20.73;;;14.70;;
55015;SDS011;40919;43.236;21.590;2022-09-17T16:45:04;20.88;;;14.98;;
55015;SDS011;40919;43.236;21.590;2022-09-17T16:47:37;25.83;;;16.10;;
55015;SDS011;40919;43.236;21.590;2022-09-17T16:50:05;17.77;;;14.07;;
55015;SDS011;40919;43.236;21.590;2022-09-17T16:52:34;21.40;;;13.07;;
55015;SDS011;40919;43.236;21.590;2022-09-17T16:55:01;18.95;;;13.25;;
55015;SDS011;40919;43.236;21.590;2022-09-17T16:57:28;16.65;;;11.10;;
55015;SDS011;40919;43.236;21.590;2022-09-17T16:59:55;15.50;;;11.95;;
55015;SDS011;40919;43.236;21.590;2022-09-17T17:02:21;18.58;;;12.38;;
55015;SDS011;40919;43.236;21.590;2022-09-17T17:04:47;15.43;;;12.55;;
55015;SDS011;40919;43.236;21.590;2022-09-17T17:07:13;15.02;;;13.00;;
55015;SDS011;40919;43.236;21.590;2022-09-17T17:09:39;16.48;;;12.48;;
55015;SDS011;40919;43.236;21.590;2022-09-17T17:12:05;15.52;;;12.25;;
55015;SDS011;40919;43.236;21.590;2022-09-17T17:14:32;17.75;;;14.05;;
55015;SDS011;40919;43.236;21.590;2022-09-17T17:16:57;35.83;;;28.15;;
55015;SDS011;40919;43.236;21.590;2022-09-17T17:19:23;30.58;;;27.17;;
55015;SDS011;40919;43.236;21.590;2022-09-17T17:21:51;20.65;;;17.13;;
55015;SDS011;40919;43.236;21.590;2022-09-17T17:24:17;18.23;;;15.20;;
55015;SDS011;40919;43.236;21.590;2022-09-17T17:26:43;21.23;;;17.38;;
55015;SDS011;40919;43.236;21.590;2022-09-17T17:29:12;19.52;;;16.98;;
55015;SDS011;40919;43.236;21.590;2022-09-17T17:31:38;22.95;;;15.65;;
55015;SDS011;40919;43.236;21.590;2022-09-17T17:34:04;25.38;;;16.83;;
55015;SDS011;40919;43.236;21.590;2022-09-17T17:36:31;17.75;;;15.15;;
55015;SDS011;40919;43.236;21.590;2022-09-17T17:38:58;21.73;;;17.35;;
55015;SDS011;40919;43.236;21.590;2022-09-17T17:41:24;23.15;;;19.40;;
55015;SDS011;40919;43.236;21.590;2022-09-17T17:43:52;24.92;;;21.15;;